createdAt,value
2019-04-11T00:01:39.414Z,163716.56
2019-04-11T00:04:04.045Z,163740.47
2019-04-11T00:06:32.205Z,163740.47
2019-04-11T00:09:00.716Z,163735.14
2019-04-11T00:11:30.182Z,163696.63
2019-04-11T00:13:59.812Z,163688.63
2019-04-11T00:16:28.950Z,163711.23
2019-04-11T00:18:58.651Z,163692.66
2019-04-11T00:21:27.127Z,163679.34
2019-04-11T00:23:56.535Z,163663.44
2019-04-11T00:26:26.340Z,163671.39
2019-04-11T00:28:56.681Z,163658.13
2019-04-11T00:31:25.199Z,163671.39
2019-04-11T00:33:54.265Z,163680.69
2019-04-11T00:36:22.584Z,163643.50
2019-04-11T00:38:50.946Z,163647.48
2019-04-11T00:41:19.165Z,163648.83
2019-04-11T00:43:47.556Z,163639.53
2019-04-11T00:46:16.250Z,163623.59
2019-04-11T00:48:44.578Z,163638.19
2019-04-11T00:51:13.901Z,163632.88
2019-04-11T00:53:42.393Z,163615.64
2019-04-11T00:56:10.944Z,163658.13
2019-04-11T00:58:39.248Z,163620.95
2019-04-11T01:01:07.599Z,163619.61
2019-04-11T01:03:36.040Z,163602.33
2019-04-11T01:06:05.720Z,163606.34
2019-04-11T01:08:34.361Z,163602.33
2019-04-11T01:11:03.601Z,163585.09
2019-04-11T01:13:41.442Z,163583.75
2019-04-11T01:16:16.133Z,163583.75
2019-04-11T01:18:44.495Z,163555.88
2019-04-11T01:21:13.601Z,163591.75
2019-04-11T01:23:42.892Z,163607.64
2019-04-11T01:26:11.191Z,163567.84
2019-04-11T01:28:39.341Z,163570.48
2019-04-11T01:31:09.528Z,163581.11
2019-04-11T01:33:37.995Z,163587.72
2019-04-11T01:36:06.996Z,163585.09
2019-04-11T01:38:40.877Z,163605.00
2019-04-11T01:41:10.014Z,163615.64
2019-04-11T01:43:38.296Z,163605.00
2019-04-11T01:46:07.718Z,163585.09
2019-04-11T01:48:54.146Z,163612.95
2019-04-11T01:51:23.408Z,163603.66
2019-04-11T01:53:51.672Z,163599.69
2019-04-11T01:56:21.093Z,163607.64
2019-04-11T01:58:49.660Z,163605.00
2019-04-11T02:01:26.727Z,163599.69
2019-04-11T02:04:03.693Z,163610.31
2019-04-11T02:06:32.264Z,163581.11
2019-04-11T02:09:01.891Z,163577.14
2019-04-11T02:11:31.753Z,163585.09
2019-04-11T02:14:10.432Z,163601.03
2019-04-11T02:16:30.929Z,163639.53
2019-04-11T02:18:59.541Z,163606.34
2019-04-11T02:21:29.462Z,163630.25
2019-04-11T02:24:03.835Z,163632.88
2019-04-11T02:26:33.785Z,163634.22
2019-04-11T02:29:01.914Z,163631.53
2019-04-11T02:31:30.595Z,163630.25
2019-04-11T02:33:59.518Z,163699.27
2019-04-11T02:36:30.073Z,163642.17
2019-04-11T02:39:02.171Z,163634.22
2019-04-11T02:41:29.855Z,163695.28
2019-04-11T02:43:59.334Z,163682.02
2019-04-11T02:46:36.411Z,163666.06
2019-04-11T02:48:59.378Z,163674.02
2019-04-11T02:51:28.893Z,163695.28
2019-04-11T02:53:58.967Z,163668.75
2019-04-11T02:56:27.948Z,163689.97
2019-04-11T02:58:56.990Z,163720.53
2019-04-11T03:01:26.254Z,163658.13
2019-04-11T03:03:57.007Z,163676.70
2019-04-11T03:06:25.962Z,163662.09
2019-04-11T03:08:55.123Z,163634.22
2019-04-11T03:11:26.077Z,163652.81
2019-04-11T03:13:58.149Z,163640.83
2019-04-11T03:16:39.433Z,163655.44
2019-04-11T03:19:16.022Z,163634.22
2019-04-11T03:21:29.189Z,163622.25
2019-04-11T03:23:58.842Z,163684.66
2019-04-11T03:26:29.084Z,163597.06
2019-04-11T03:28:57.867Z,163655.44
2019-04-11T03:32:08.173Z,163643.50
2019-04-11T03:35:02.890Z,163636.84
2019-04-11T03:39:21.644Z,163671.39
2019-04-11T03:41:48.933Z,163644.86
2019-04-11T03:44:13.816Z,163660.75
2019-04-11T03:46:48.242Z,163631.53
2019-04-11T03:49:16.552Z,163635.52
2019-04-11T03:51:33.856Z,163619.61
2019-04-11T03:54:02.897Z,163626.22
2019-04-11T03:56:32.809Z,163618.27
2019-04-11T03:59:03.817Z,163605.00
2019-04-11T04:01:33.907Z,163650.12
2019-04-11T04:04:03.438Z,163607.64
2019-04-11T04:06:33.076Z,163594.37
2019-04-11T04:09:02.785Z,163597.06
2019-04-11T04:11:32.636Z,163591.75
2019-04-11T04:14:17.813Z,163577.14
2019-04-11T04:17:10.060Z,163583.75
2019-04-11T04:20:04.925Z,163607.64
2019-04-11T04:22:56.661Z,163623.59
2019-04-11T04:25:26.217Z,163638.19
2019-04-11T04:27:55.142Z,163678.05
2019-04-11T04:30:27.084Z,163711.23
2019-04-11T04:32:56.586Z,163700.61
2019-04-11T04:35:26.208Z,163701.95
2019-04-11T04:37:56.946Z,163724.50
2019-04-11T04:40:46.327Z,163711.23
2019-04-11T04:43:00.233Z,163716.56
2019-04-11T04:45:28.343Z,163682.02
2019-04-11T04:48:03.403Z,163703.23
2019-04-11T04:50:28.745Z,163704.58
2019-04-11T04:52:58.664Z,163712.53
2019-04-11T04:55:30.156Z,163725.84
2019-04-11T04:57:59.689Z,163728.48
2019-04-11T05:00:31.451Z,163743.09
2019-04-11T05:02:59.948Z,163764.38
2019-04-11T05:05:30.976Z,163770.98
2019-04-11T05:08:00.639Z,163774.95
2019-04-11T05:10:30.682Z,163781.63
2019-04-11T05:12:59.304Z,163782.95
2019-04-11T05:15:28.271Z,163782.95
2019-04-11T05:17:57.671Z,163794.88
2019-04-11T05:20:26.285Z,163822.78
2019-04-11T05:22:54.473Z,163829.44
2019-04-11T05:25:23.272Z,163860.02
2019-04-11T05:27:51.736Z,163870.59
2019-04-11T05:30:20.222Z,163905.16
2019-04-11T05:32:49.345Z,163905.16
2019-04-11T05:35:18.509Z,163934.39
2019-04-11T05:37:47.140Z,163930.42
2019-04-11T05:40:15.509Z,163966.27
2019-04-11T05:42:43.699Z,163994.22
2019-04-11T05:45:17.155Z,163995.52
2019-04-11T05:47:41.998Z,164000.83
2019-04-11T05:50:36.185Z,164003.52
2019-04-11T05:53:05.548Z,164026.09
2019-04-11T05:55:41.556Z,164064.66
2019-04-11T05:58:13.781Z,164073.95
2019-04-11T06:01:10.050Z,164072.61
2019-04-11T06:03:41.063Z,164083.25
2019-04-11T06:06:18.807Z,164105.84
2019-04-11T06:08:48.254Z,164151.06
2019-04-11T06:11:34.973Z,164194.95
2019-04-11T06:14:11.513Z,164200.28
2019-04-11T06:16:47.295Z,164212.22
2019-04-11T06:19:33.517Z,164218.89
2019-04-11T06:22:04.575Z,164237.50
2019-04-11T06:24:42.603Z,164232.19
2019-04-11T06:27:22.082Z,164282.69
2019-04-11T06:30:07.519Z,164298.67
2019-04-11T06:32:54.568Z,164330.58
2019-04-11T06:35:30.333Z,164349.25
2019-04-11T06:38:18.443Z,164394.45
2019-04-11T06:40:54.763Z,164471.64
2019-04-11T06:43:32.319Z,164395.80
2019-04-11T06:46:20.797Z,164375.84
2019-04-11T06:49:09.828Z,164367.87
2019-04-11T06:51:44.165Z,164385.14
2019-04-11T06:54:19.046Z,164375.84
2019-04-11T06:56:48.160Z,164453.02
2019-04-11T06:59:29.591Z,164413.08
2019-04-11T07:02:08.930Z,164429.06
2019-04-11T07:04:35.874Z,164458.34
2019-04-11T07:07:06.592Z,164514.22
2019-04-11T07:09:39.635Z,164564.83
2019-04-11T07:12:15.593Z,164562.14
2019-04-11T07:14:55.114Z,164604.72
2019-04-11T07:17:42.154Z,164634.03
2019-04-11T07:20:41.993Z,164635.37
2019-04-11T07:23:30.712Z,164648.67
2019-04-11T07:26:08.010Z,164684.64
2019-04-11T07:28:54.421Z,164666.02
2019-04-11T07:31:41.032Z,164696.61
2019-04-11T07:34:31.433Z,164841.84
2019-04-11T07:37:23.624Z,164935.13
2019-04-11T07:40:24.314Z,165129.69
2019-04-11T07:43:15.361Z,165201.67
2019-04-11T07:46:02.737Z,165218.98
2019-04-11T07:48:40.205Z,165284.38
2019-04-11T07:51:17.614Z,165437.81
2019-04-11T07:53:48.244Z,165257.66
2019-04-11T07:56:30.684Z,165289.70
2019-04-11T07:59:02.914Z,165399.12
2019-04-11T08:01:53.601Z,165404.47
2019-04-11T08:04:40.804Z,165500.53
2019-04-11T08:07:31.321Z,165492.53
2019-04-11T08:10:05.833Z,165347.11
2019-04-11T08:12:34.346Z,165447.16
2019-04-11T08:15:21.828Z,165445.81
2019-04-11T08:17:50.141Z,165439.16
2019-04-11T08:20:37.470Z,165404.47
2019-04-11T08:23:07.591Z,165564.59
2019-04-11T08:25:54.323Z,165513.86
2019-04-11T08:28:22.679Z,165537.88
2019-04-11T08:31:16.610Z,165475.16
2019-04-11T08:33:44.738Z,165493.84
2019-04-11T08:36:31.769Z,165552.56
2019-04-11T08:39:01.978Z,165488.50
2019-04-11T08:42:09.390Z,165495.19
2019-04-11T08:44:39.748Z,165495.19
2019-04-11T08:47:13.045Z,165519.20
2019-04-11T08:49:43.315Z,165516.56
2019-04-11T08:52:43.027Z,165548.56
2019-04-11T08:55:17.251Z,165635.33
2019-04-11T08:57:49.873Z,165671.34
2019-04-11T09:00:43.803Z,165756.83
2019-04-11T09:03:19.688Z,165652.66
2019-04-11T09:06:02.413Z,165747.48
2019-04-11T09:08:54.464Z,165625.98
2019-04-11T09:11:44.689Z,165655.36
2019-04-11T09:14:41.553Z,165618.00
2019-04-11T09:17:28.293Z,165780.87
2019-04-11T09:20:25.511Z,165767.47
2019-04-11T09:23:05.729Z,165879.72
2019-04-11T09:25:54.649Z,165647.31
2019-04-11T09:28:44.087Z,165564.59
2019-04-11T09:31:41.774Z,165571.25
2019-04-11T09:34:42.305Z,165444.50
2019-04-11T09:37:22.147Z,165521.84
2019-04-11T09:40:05.695Z,165623.28
2019-04-11T09:42:48.865Z,165465.83
2019-04-11T09:45:33.300Z,165423.14
2019-04-11T09:48:21.019Z,165387.14
2019-04-11T09:51:00.870Z,165331.03
2019-04-11T09:53:30.305Z,165463.17
2019-04-11T09:56:13.218Z,165553.91
2019-04-11T09:58:42.150Z,165618.00
2019-04-11T10:01:39.326Z,165686.03
2019-04-11T10:04:08.853Z,165646.02
2019-04-11T10:06:57.096Z,165687.38
2019-04-11T10:09:32.889Z,165541.88
2019-04-11T10:12:20.039Z,165625.98
2019-04-11T10:14:50.153Z,165448.50
2019-04-11T10:17:42.353Z,165473.81
2019-04-11T10:20:13.042Z,165529.89
2019-04-11T10:23:08.145Z,165397.78
2019-04-11T10:25:45.575Z,165467.17
2019-04-11T10:28:33.429Z,165633.97
2019-04-11T10:31:28.429Z,165700.72
2019-04-11T10:34:19.652Z,165754.13
2019-04-11T10:36:55.703Z,165959.91
2019-04-11T10:39:59.825Z,166018.64
2019-04-11T10:42:30.691Z,166080.16
2019-04-11T10:45:24.890Z,165979.91
2019-04-11T10:47:58.951Z,165776.88
2019-04-11T10:50:48.771Z,165537.88
2019-04-11T10:53:17.995Z,165537.88
2019-04-11T10:56:08.945Z,165527.19
2019-04-11T10:59:03.322Z,165499.17
2019-04-11T11:01:50.589Z,165636.67
2019-04-11T11:04:38.783Z,165627.33
2019-04-11T11:07:13.074Z,165520.55
2019-04-11T11:10:01.335Z,165455.14
2019-04-11T11:12:52.129Z,165501.88
2019-04-11T11:15:28.343Z,165487.19
2019-04-11T11:18:53.814Z,165481.84
2019-04-11T11:21:07.641Z,165421.78
2019-04-11T11:23:54.412Z,165519.20
2019-04-11T11:26:32.186Z,165509.88
2019-04-11T11:29:20.509Z,165420.48
2019-04-11T11:32:05.014Z,165456.48
2019-04-11T11:34:37.433Z,165628.63
2019-04-11T11:37:25.179Z,165907.77
2019-04-11T11:40:28.391Z,165905.11
2019-04-11T11:43:16.949Z,165795.56
2019-04-11T11:46:10.457Z,166018.64
2019-04-11T11:49:04.011Z,166040.05
2019-04-11T11:51:37.480Z,165893.06
2019-04-11T11:54:11.920Z,165695.38
2019-04-11T11:56:40.770Z,165772.81
2019-04-11T11:59:30.178Z,165703.41
2019-04-11T12:02:00.800Z,165686.03
2019-04-11T12:04:48.641Z,165647.31
2019-04-11T12:07:18.999Z,165786.22
2019-04-11T12:10:06.822Z,165751.48
2019-04-11T12:12:42.106Z,165802.20
2019-04-11T12:15:37.163Z,165877.08
2019-04-11T12:18:21.665Z,165839.63
2019-04-11T12:20:58.835Z,165704.72
2019-04-11T12:23:57.976Z,165719.41
2019-04-11T12:26:20.289Z,165727.45
2019-04-11T12:29:08.291Z,165743.44
2019-04-11T12:31:37.559Z,165731.44
2019-04-11T12:34:16.481Z,165593.97
2019-04-11T12:36:48.054Z,165767.47
2019-04-11T12:39:33.923Z,165850.33
2019-04-11T12:42:08.760Z,165764.83
2019-04-11T12:44:45.657Z,165719.41
2019-04-11T12:47:25.183Z,165619.30
2019-04-11T12:50:23.911Z,165609.95
2019-04-11T12:52:56.442Z,165622.00
2019-04-11T12:55:33.179Z,165687.38
2019-04-11T12:58:08.057Z,165644.67
2019-04-11T13:01:00.541Z,165727.45
2019-04-11T13:03:57.483Z,165587.28
2019-04-11T13:06:41.533Z,165559.25
2019-04-11T13:09:18.193Z,165639.31
2019-04-11T13:11:48.237Z,165660.70
2019-04-11T13:14:45.417Z,165633.97
2019-04-11T13:17:17.109Z,165569.94
2019-04-11T13:20:05.372Z,165674.05
2019-04-11T13:22:33.559Z,165577.94
2019-04-11T13:25:20.043Z,165516.56
2019-04-11T13:27:51.612Z,165567.25
2019-04-11T13:30:38.475Z,165664.70
2019-04-11T13:33:26.694Z,165593.97
2019-04-11T13:36:13.247Z,165568.59
2019-04-11T13:38:46.282Z,165628.63
2019-04-11T13:41:32.970Z,165600.61
2019-04-11T13:44:09.805Z,165633.97
2019-04-11T13:46:57.778Z,165519.20
2019-04-11T13:49:46.105Z,165537.88
2019-04-11T13:52:33.962Z,165547.22
2019-04-11T13:55:10.436Z,165541.88
2019-04-11T13:57:58.215Z,165569.94
2019-04-11T14:00:39.854Z,165497.83
2019-04-11T14:03:30.429Z,165503.17
2019-04-11T14:06:02.307Z,165580.58
2019-04-11T14:08:39.743Z,165601.95
2019-04-11T14:11:10.743Z,165487.19
2019-04-11T14:13:40.716Z,165528.53
2019-04-11T14:16:20.355Z,165480.50
2019-04-11T14:19:14.638Z,165540.58
2019-04-11T14:21:44.301Z,165556.56
2019-04-11T14:24:25.491Z,165601.95
2019-04-11T14:26:54.290Z,165548.56
2019-04-11T14:29:50.868Z,165475.16
2019-04-11T14:32:27.290Z,165452.50
2019-04-11T14:35:29.612Z,165445.81
2019-04-11T14:38:09.452Z,165485.84
2019-04-11T14:41:12.438Z,165440.47
2019-04-11T14:43:45.905Z,165409.81
2019-04-11T14:46:36.520Z,165449.80
2019-04-11T14:49:10.454Z,165439.16
2019-04-11T14:51:58.764Z,165448.50
2019-04-11T14:54:42.136Z,165421.78
2019-04-11T14:57:38.992Z,165371.13
2019-04-11T15:00:45.098Z,165404.47
2019-04-11T15:03:35.859Z,165409.81
2019-04-11T15:06:17.237Z,165380.45
2019-04-11T15:09:06.803Z,165371.13
2019-04-11T15:11:47.145Z,165361.78
2019-04-11T15:14:35.791Z,165351.09
2019-04-11T15:17:26.364Z,165375.11
2019-04-11T15:20:13.890Z,165473.81
2019-04-11T15:22:48.340Z,165428.47
2019-04-11T15:25:23.973Z,165372.47
2019-04-11T15:28:07.823Z,165393.78
2019-04-11T15:30:36.588Z,165361.78
2019-04-11T15:33:27.199Z,165337.72
2019-04-11T15:35:58.022Z,165283.02
2019-04-11T15:38:45.171Z,165287.00
2019-04-11T15:41:15.122Z,165312.36
2019-04-11T15:44:01.465Z,165324.39
2019-04-11T15:46:31.940Z,165319.05
2019-04-11T15:49:21.152Z,165271.05
2019-04-11T15:51:52.179Z,165304.38
2019-04-11T15:54:40.082Z,165315.02
2019-04-11T15:57:19.359Z,165243.00
2019-04-11T16:00:07.084Z,165243.00
2019-04-11T16:02:47.970Z,165268.34
2019-04-11T16:05:35.725Z,165260.36
2019-04-11T16:08:17.044Z,165236.36
2019-04-11T16:11:07.569Z,165260.36
2019-04-11T16:13:49.033Z,165277.67
2019-04-11T16:16:17.860Z,165281.67
2019-04-11T16:19:18.004Z,165231.02
2019-04-11T16:21:59.567Z,165243.00
2019-04-11T16:24:31.106Z,165193.69
2019-04-11T16:27:07.704Z,165227.03
2019-04-11T16:29:43.212Z,165201.67
2019-04-11T16:32:12.865Z,165180.33
2019-04-11T16:34:49.103Z,165193.69
2019-04-11T16:37:18.560Z,165244.34
2019-04-11T16:40:05.368Z,165204.37
2019-04-11T16:42:39.468Z,165215.00
2019-04-11T16:45:27.629Z,165179.03
2019-04-11T16:48:04.571Z,165140.36
2019-04-11T16:50:32.805Z,165101.70
2019-04-11T16:53:01.180Z,165124.34
2019-04-11T16:55:29.667Z,165175.03
2019-04-11T16:57:58.004Z,165169.70
2019-04-11T17:00:26.654Z,165144.34
2019-04-11T17:02:55.675Z,165128.34
2019-04-11T17:05:26.126Z,165083.03
2019-04-11T17:08:12.432Z,165084.34
2019-04-11T17:10:58.863Z,165059.05
2019-04-11T17:13:27.551Z,165057.70
2019-04-11T17:15:59.847Z,165028.37
2019-04-11T17:18:26.385Z,165013.72
2019-04-11T17:20:54.558Z,164975.06
2019-04-11T17:23:22.683Z,164981.75
2019-04-11T17:25:53.007Z,164976.41
2019-04-11T17:28:23.067Z,164953.77
2019-04-11T17:30:55.038Z,164917.77
2019-04-11T17:33:21.985Z,164943.09
2019-04-11T17:35:50.433Z,164920.47
2019-04-11T17:38:18.662Z,164887.16
2019-04-11T17:40:47.392Z,164895.13
2019-04-11T17:43:15.681Z,164884.47
2019-04-11T17:45:43.813Z,164893.78
2019-04-11T17:48:12.897Z,164889.80
2019-04-11T17:50:41.127Z,164873.80
2019-04-11T17:53:09.442Z,164895.13
2019-04-11T17:55:38.799Z,164873.80
2019-04-11T17:58:06.942Z,164847.17
2019-04-11T18:00:38.354Z,164835.16
2019-04-11T18:03:06.538Z,164841.84
2019-04-11T18:05:34.659Z,164836.50
2019-04-11T18:08:03.044Z,164825.84
2019-04-11T18:10:31.495Z,164839.14
2019-04-11T18:13:00.590Z,164835.16
2019-04-11T18:15:31.171Z,164823.20
2019-04-11T18:17:59.096Z,164811.19
2019-04-11T18:20:27.453Z,164817.86
2019-04-11T18:22:55.855Z,164823.20
2019-04-11T18:25:24.154Z,164820.50
2019-04-11T18:27:52.507Z,164797.87
2019-04-11T18:30:23.296Z,164799.22
2019-04-11T18:32:51.760Z,164781.88
2019-04-11T18:35:19.901Z,164767.22
2019-04-11T18:37:48.073Z,164764.58
2019-04-11T18:40:17.514Z,164772.56
2019-04-11T18:42:45.956Z,164779.23
2019-04-11T18:45:17.077Z,164788.56
2019-04-11T18:47:46.278Z,164783.22
2019-04-11T18:50:16.060Z,164783.22
2019-04-11T18:52:44.216Z,164757.91
2019-04-11T18:55:13.148Z,164769.91
2019-04-11T18:57:41.347Z,164741.95
2019-04-11T19:00:15.026Z,164765.94
2019-04-11T19:02:44.057Z,164736.63
2019-04-11T19:05:13.334Z,164745.94
2019-04-11T19:07:43.105Z,164736.63
2019-04-11T19:10:15.010Z,164740.61
2019-04-11T19:12:43.972Z,164729.94
2019-04-11T19:15:16.757Z,164723.31
2019-04-11T19:17:46.762Z,164737.97
2019-04-11T19:20:18.931Z,164720.63
2019-04-11T19:22:45.808Z,164705.97
2019-04-11T19:25:13.981Z,164732.64
2019-04-11T19:27:42.479Z,164709.97
2019-04-11T19:30:11.436Z,164700.59
2019-04-11T19:32:39.616Z,164717.98
2019-04-11T19:35:08.118Z,164724.61
2019-04-11T19:37:36.537Z,164701.94
2019-04-11T19:40:05.611Z,164685.94
2019-04-11T19:42:33.738Z,164695.25
2019-04-11T19:45:02.985Z,164677.97
2019-04-11T19:47:31.381Z,164673.98
2019-04-11T19:49:59.620Z,164679.31
2019-04-11T19:52:29.879Z,164654.00
2019-04-11T19:55:04.744Z,164642.05
2019-04-11T19:57:32.360Z,164646.03
2019-04-11T20:00:00.700Z,164660.69
2019-04-11T20:02:28.864Z,164631.37
2019-04-11T20:04:57.835Z,164622.06
2019-04-11T20:07:26.584Z,164612.75
2019-04-11T20:09:54.883Z,164615.39
2019-04-11T20:12:23.061Z,164619.37
2019-04-11T20:14:51.196Z,164636.72
2019-04-11T20:17:19.947Z,164604.72
2019-04-11T20:20:00.619Z,164586.09
2019-04-11T20:22:19.054Z,164580.77
2019-04-11T20:24:47.230Z,164580.77
2019-04-11T20:27:20.029Z,164580.77
2019-04-11T20:29:46.041Z,164554.17
2019-04-11T20:32:15.497Z,164568.81
2019-04-11T20:34:43.700Z,164560.78
2019-04-11T20:37:12.993Z,164558.16
2019-04-11T20:39:46.279Z,164555.52
2019-04-11T20:42:12.482Z,164576.78
2019-04-11T20:44:42.464Z,164572.80
2019-04-11T20:47:10.745Z,164551.48
2019-04-11T20:49:48.060Z,164552.81
2019-04-11T20:52:16.581Z,164531.56
2019-04-11T20:54:45.362Z,164543.50
2019-04-11T20:57:24.955Z,164543.50
2019-04-11T20:59:43.846Z,164516.91
2019-04-11T21:02:12.260Z,164514.22
2019-04-11T21:04:40.531Z,164516.91
2019-04-11T21:07:08.674Z,164499.58
2019-04-11T21:09:36.923Z,164510.23
2019-04-11T21:12:07.488Z,164508.89
2019-04-11T21:14:35.113Z,164495.59
2019-04-11T21:17:03.280Z,164474.28
2019-04-11T21:19:31.489Z,164479.61
2019-04-11T21:21:59.697Z,164476.97
2019-04-11T21:24:30.795Z,164469.00
2019-04-11T21:26:59.169Z,164474.28
2019-04-11T21:29:30.309Z,164464.97
2019-04-11T21:32:00.859Z,164471.64
2019-04-11T21:34:29.986Z,164472.98
2019-04-11T21:37:01.720Z,164453.02
2019-04-11T21:39:29.606Z,164455.66
2019-04-11T21:41:57.979Z,164466.31
2019-04-11T21:44:26.266Z,164482.30
2019-04-11T21:46:54.490Z,164463.67
2019-04-11T21:49:22.932Z,164455.66
2019-04-11T21:51:51.413Z,164451.67
2019-04-11T21:54:20.126Z,164460.98
2019-04-11T21:56:49.570Z,164466.31
2019-04-11T21:59:20.358Z,164457.00
2019-04-11T22:01:49.253Z,164453.02
2019-04-11T22:04:17.582Z,164433.05
2019-04-11T22:06:46.513Z,164447.69
2019-04-11T22:09:14.855Z,164458.34
2019-04-11T22:11:43.095Z,164430.41
2019-04-11T22:14:11.905Z,164425.08
2019-04-11T22:16:44.061Z,164445.05
2019-04-11T22:19:14.022Z,164411.78
2019-04-11T22:21:40.335Z,164459.69
2019-04-11T22:24:09.253Z,164409.09
2019-04-11T22:26:37.504Z,164414.42
2019-04-11T22:29:05.856Z,164411.78
2019-04-11T22:31:34.039Z,164415.77
2019-04-11T22:34:10.595Z,164423.73
2019-04-11T22:36:39.164Z,164397.16
2019-04-11T22:39:09.728Z,164387.84
2019-04-11T22:41:38.613Z,164390.47
2019-04-11T22:44:07.976Z,164402.42
2019-04-11T22:46:37.811Z,164405.11
2019-04-11T22:49:08.746Z,164402.42
2019-04-11T22:51:36.726Z,164395.80
2019-04-11T22:54:05.001Z,164397.16
2019-04-11T22:56:33.292Z,164378.47
2019-04-11T22:59:01.986Z,164374.50
2019-04-11T23:01:30.284Z,164375.84
2019-04-11T23:03:59.972Z,164375.84
2019-04-11T23:06:28.168Z,164378.47
2019-04-11T23:08:56.309Z,164363.89
2019-04-11T23:11:24.451Z,164387.84
2019-04-11T23:13:52.684Z,164370.52
2019-04-11T23:16:20.806Z,164373.20
2019-04-11T23:18:48.972Z,164354.53
2019-04-11T23:21:17.200Z,164410.44
2019-04-11T23:23:45.435Z,164363.89
2019-04-11T23:26:13.819Z,164354.53
2019-04-11T23:28:45.862Z,164359.86
2019-04-11T23:31:12.289Z,164354.53
2019-04-11T23:33:40.417Z,164341.23
2019-04-11T23:36:08.575Z,164354.53
2019-04-11T23:38:36.787Z,164342.58
2019-04-11T23:41:04.926Z,164359.86
2019-04-11T23:43:33.107Z,164329.28
2019-04-11T23:46:01.394Z,164311.97
2019-04-11T23:48:29.624Z,164307.98
2019-04-11T23:50:58.107Z,164319.98
2019-04-11T23:53:29.098Z,164290.72
2019-04-11T23:55:59.674Z,164317.28
2019-04-11T23:58:26.634Z,164311.97
